Ana Sayfa
METAR-TAF:

METAR-TAF

Havaalanları :

Calhoun County Airport

Port Lavaca, Teksas, Amerika Birleşik Devletleri

Enlem: 28-39-14N, Boylam: 096-40-52W, yükseklik: 9 m

Güncel hava durumu gözlemi

Rapor saat 15:15 UTC de 17 dakika önce yapıldı.
Rüzgar doğudan 13 kt ve 24 kt'a kadar ani rüzgarlar
Sıcaklık 23°C
Nem 89%
Basınç 1015 hPa
Görüş mesafesi: 4.8 km
1300 ft yükseklikte parçalı bulutlu
2400 ft yükseklikte parçalı çok bulutlu
3900 ft yükseklikte çok bulutlu
hafif yağmur

METAR: KPKV 241515Z AUTO 08013G24KT 3SM -RA SCT013 BKN024 OVC039 23/21 A2996 RMK AO2 P0007 T02280214

Saat: 10:32 (15:32 UTC)


TAF: eksik

4.000'den fazla havaalanı için hava durumu gözlemleri ve tahminleri (METAR ve TAF raporları).

Kullanılabilir istasyonlar harita üzerinde sarı ve kırmızı noktalarla gösterilir.

İstasyonun adını görmek için fareyi noktanın üzerinde gezdirin.

Sonrasında hava gözlem ve tahminlerini görmek için tıklayın.

Haritayı değiştirmek için: yaklaştırmak için siyah artı işaretli yeşil düğmeye ve uzaklaştırmak için de eksi işaretli düğmeye hızla tıklayın; bitişik haritalar için yeşil okları kullanın.


METAR-TAF: